sensor_id;sensor_type;location;lat;lon;timestamp;pressure;altitude;pressure_sealevel;temperature;humidity
58072;BME280;60383;46.626;18.866;2022-12-29T00:01:36;101116.88;;;1.57;82.82
58072;BME280;60383;46.626;18.866;2022-12-29T00:04:02;101110.28;;;1.63;83.33
58072;BME280;60383;46.626;18.866;2022-12-29T00:06:28;101115.75;;;1.62;83.10
58072;BME280;60383;46.626;18.866;2022-12-29T00:08:53;101113.47;;;1.71;82.21
58072;BME280;60383;46.626;18.866;2022-12-29T00:11:23;101116.75;;;1.61;82.15
58072;BME280;60383;46.626;18.866;2022-12-29T00:13:49;101122.91;;;1.63;82.05
58072;BME280;60383;46.626;18.866;2022-12-29T00:16:33;101116.22;;;1.70;82.13
58072;BME280;60383;46.626;18.866;2022-12-29T00:19:00;101113.28;;;1.74;81.90
58072;BME280;60383;46.626;18.866;2022-12-29T00:21:26;101107.72;;;1.78;82.08
58072;BME280;60383;46.626;18.866;2022-12-29T00:24:28;101112.31;;;1.75;81.87
58072;BME280;60383;46.626;18.866;2022-12-29T00:27:14;101107.16;;;1.71;82.50
58072;BME280;60383;46.626;18.866;2022-12-29T00:29:58;101104.47;;;1.71;82.41
58072;BME280;60383;46.626;18.866;2022-12-29T00:32:42;101104.38;;;1.72;82.32
58072;BME280;60383;46.626;18.866;2022-12-29T00:35:32;101095.31;;;1.73;82.89
58072;BME280;60383;46.626;18.866;2022-12-29T00:38:02;101094.00;;;1.65;83.28
58072;BME280;60383;46.626;18.866;2022-12-29T00:40:47;101094.91;;;1.48;84.01
58072;BME280;60383;46.626;18.866;2022-12-29T00:43:31;101089.97;;;1.56;84.06
58072;BME280;60383;46.626;18.866;2022-12-29T00:46:15;101093.16;;;1.47;84.01
58072;BME280;60383;46.626;18.866;2022-12-29T00:48:40;101100.22;;;1.49;84.43
58072;BME280;60383;46.626;18.866;2022-12-29T00:51:24;101096.75;;;1.47;83.75
58072;BME280;60383;46.626;18.866;2022-12-29T00:53:49;101095.91;;;1.63;82.83
58072;BME280;60383;46.626;18.866;2022-12-29T00:56:15;101092.50;;;1.59;82.38
58072;BME280;60383;46.626;18.866;2022-12-29T00:58:40;101086.97;;;1.78;82.07
58072;BME280;60383;46.626;18.866;2022-12-29T01:01:07;101091.75;;;1.73;82.75
58072;BME280;60383;46.626;18.866;2022-12-29T01:03:35;101093.84;;;1.68;83.39
58072;BME280;60383;46.626;18.866;2022-12-29T01:06:06;101091.88;;;1.54;83.29
58072;BME280;60383;46.626;18.866;2022-12-29T01:08:32;101087.78;;;1.47;84.06
58072;BME280;60383;46.626;18.866;2022-12-29T01:13:24;101093.66;;;1.37;84.63
58072;BME280;60383;46.626;18.866;2022-12-29T01:15:51;101093.13;;;1.31;84.71
58072;BME280;60383;46.626;18.866;2022-12-29T01:18:17;101104.16;;;1.26;84.99
58072;BME280;60383;46.626;18.866;2022-12-29T01:20:42;101097.84;;;1.43;83.34
58072;BME280;60383;46.626;18.866;2022-12-29T01:23:08;101092.78;;;1.37;84.04
58072;BME280;60383;46.626;18.866;2022-12-29T01:25:33;101089.94;;;1.40;83.66
58072;BME280;60383;46.626;18.866;2022-12-29T01:27:58;101093.75;;;1.36;83.99
58072;BME280;60383;46.626;18.866;2022-12-29T01:30:24;101094.97;;;1.30;84.42
58072;BME280;60383;46.626;18.866;2022-12-29T01:32:49;101096.19;;;1.40;83.86
58072;BME280;60383;46.626;18.866;2022-12-29T01:35:15;101088.28;;;1.20;85.45
58072;BME280;60383;46.626;18.866;2022-12-29T01:37:40;101080.94;;;1.39;84.50
58072;BME280;60383;46.626;18.866;2022-12-29T01:40:06;101090.56;;;1.27;85.25
58072;BME280;60383;46.626;18.866;2022-12-29T01:42:32;101077.63;;;1.34;85.06
58072;BME280;60383;46.626;18.866;2022-12-29T01:45:00;101081.13;;;1.19;85.18
58072;BME280;60383;46.626;18.866;2022-12-29T01:47:35;101074.56;;;1.07;85.76
58072;BME280;60383;46.626;18.866;2022-12-29T01:50:09;101079.00;;;1.08;85.84
58072;BME280;60383;46.626;18.866;2022-12-29T01:52:41;101069.56;;;0.99;85.48
58072;BME280;60383;46.626;18.866;2022-12-29T01:55:10;101068.94;;;1.11;85.09
58072;BME280;60383;46.626;18.866;2022-12-29T01:57:38;101076.69;;;1.18;84.67
58072;BME280;60383;46.626;18.866;2022-12-29T02:00:09;101066.38;;;1.26;84.20
58072;BME280;60383;46.626;18.866;2022-12-29T02:02:35;101059.50;;;1.03;85.20
58072;BME280;60383;46.626;18.866;2022-12-29T02:05:07;101064.47;;;1.10;84.88
58072;BME280;60383;46.626;18.866;2022-12-29T02:07:35;101065.91;;;1.18;84.64
58072;BME280;60383;46.626;18.866;2022-12-29T02:10:03;101052.50;;;1.16;84.48
58072;BME280;60383;46.626;18.866;2022-12-29T02:12:28;101045.28;;;1.17;84.33
58072;BME280;60383;46.626;18.866;2022-12-29T02:14:58;101044.41;;;1.16;83.71
58072;BME280;60383;46.626;18.866;2022-12-29T02:17:44;101038.47;;;0.92;84.86
58072;BME280;60383;46.626;18.866;2022-12-29T02:37:47;101033.47;;;0.67;85.54
58072;BME280;60383;46.626;18.866;2022-12-29T02:40:26;101035.09;;;0.71;85.78
58072;BME280;60383;46.626;18.866;2022-12-29T02:45:51;101039.91;;;0.64;85.90
58072;BME280;60383;46.626;18.866;2022-12-29T02:51:02;101032.03;;;0.59;85.88
58072;BME280;60383;46.626;18.866;2022-12-29T02:53:29;101036.13;;;0.68;85.34
58072;BME280;60383;46.626;18.866;2022-12-29T02:56:15;101035.00;;;0.72;85.57
58072;BME280;60383;46.626;18.866;2022-12-29T02:58:41;101026.50;;;0.62;85.29
58072;BME280;60383;46.626;18.866;2022-12-29T03:11:41;101025.97;;;0.73;86.15
58072;BME280;60383;46.626;18.866;2022-12-29T03:14:55;101021.03;;;0.64;86.18
58072;BME280;60383;46.626;18.866;2022-12-29T03:17:57;101016.75;;;0.77;85.61
58072;BME280;60383;46.626;18.866;2022-12-29T03:20:38;101010.63;;;0.74;84.93
58072;BME280;60383;46.626;18.866;2022-12-29T03:23:05;101012.16;;;0.79;85.59
58072;BME280;60383;46.626;18.866;2022-12-29T03:25:38;101012.63;;;0.70;85.15
58072;BME280;60383;46.626;18.866;2022-12-29T03:28:12;101011.22;;;0.81;85.20
58072;BME280;60383;46.626;18.866;2022-12-29T03:30:40;101008.56;;;0.79;85.41
58072;BME280;60383;46.626;18.866;2022-12-29T03:33:12;101006.59;;;0.83;85.10
58072;BME280;60383;46.626;18.866;2022-12-29T03:35:42;100996.50;;;0.86;84.64
58072;BME280;60383;46.626;18.866;2022-12-29T03:40:56;101002.47;;;0.93;84.71
58072;BME280;60383;46.626;18.866;2022-12-29T03:43:23;101007.94;;;0.91;84.17
58072;BME280;60383;46.626;18.866;2022-12-29T03:45:50;101001.75;;;0.89;85.47
58072;BME280;60383;46.626;18.866;2022-12-29T03:48:15;101001.47;;;0.78;85.57
58072;BME280;60383;46.626;18.866;2022-12-29T03:50:41;101000.00;;;0.88;85.41
58072;BME280;60383;46.626;18.866;2022-12-29T03:53:06;100995.75;;;0.84;85.07
58072;BME280;60383;46.626;18.866;2022-12-29T03:55:32;101003.66;;;0.87;84.33
58072;BME280;60383;46.626;18.866;2022-12-29T03:57:57;100999.91;;;0.90;84.71
58072;BME280;60383;46.626;18.866;2022-12-29T04:00:23;100998.19;;;0.71;85.35
58072;BME280;60383;46.626;18.866;2022-12-29T04:02:49;100989.06;;;0.91;84.61
58072;BME280;60383;46.626;18.866;2022-12-29T04:05:15;101003.97;;;0.81;85.41
58072;BME280;60383;46.626;18.866;2022-12-29T04:07:40;101001.19;;;0.83;85.34
58072;BME280;60383;46.626;18.866;2022-12-29T04:10:06;101000.25;;;0.66;85.19
58072;BME280;60383;46.626;18.866;2022-12-29T04:12:31;101002.56;;;0.74;85.18
58072;BME280;60383;46.626;18.866;2022-12-29T04:14:57;101008.03;;;0.72;85.71
58072;BME280;60383;46.626;18.866;2022-12-29T04:17:22;100998.81;;;0.76;85.04
58072;BME280;60383;46.626;18.866;2022-12-29T04:19:47;100997.78;;;0.79;85.18
58072;BME280;60383;46.626;18.866;2022-12-29T04:22:13;100994.63;;;0.53;86.13
58072;BME280;60383;46.626;18.866;2022-12-29T04:24:38;100993.97;;;0.66;86.19
58072;BME280;60383;46.626;18.866;2022-12-29T04:27:04;100995.09;;;0.61;86.29
58072;BME280;60383;46.626;18.866;2022-12-29T04:29:29;101004.31;;;0.57;86.70
58072;BME280;60383;46.626;18.866;2022-12-29T04:31:55;101001.34;;;0.62;86.78
58072;BME280;60383;46.626;18.866;2022-12-29T04:34:20;100996.28;;;0.56;86.83
58072;BME280;60383;46.626;18.866;2022-12-29T04:36:46;101000.09;;;0.69;86.63
58072;BME280;60383;46.626;18.866;2022-12-29T04:39:12;100999.09;;;0.72;86.34
58072;BME280;60383;46.626;18.866;2022-12-29T04:41:37;101003.06;;;0.65;85.96
58072;BME280;60383;46.626;18.866;2022-12-29T04:44:03;100999.22;;;0.69;86.17
58072;BME280;60383;46.626;18.866;2022-12-29T04:46:28;101006.75;;;0.62;86.64
58072;BME280;60383;46.626;18.866;2022-12-29T04:48:54;101004.38;;;0.56;86.90
58072;BME280;60383;46.626;18.866;2022-12-29T04:51:19;101007.78;;;0.59;87.39
58072;BME280;60383;46.626;18.866;2022-12-29T04:53:44;101009.53;;;0.60;87.83
58072;BME280;60383;46.626;18.866;2022-12-29T04:56:10;101003.50;;;0.73;88.01
58072;BME280;60383;46.626;18.866;2022-12-29T04:58:36;100996.44;;;0.70;86.75
58072;BME280;60383;46.626;18.866;2022-12-29T05:01:02;100990.84;;;0.57;87.25
58072;BME280;60383;46.626;18.866;2022-12-29T05:03:27;100995.16;;;0.42;88.30
58072;BME280;60383;46.626;18.866;2022-12-29T05:05:54;100996.69;;;0.30;88.55
58072;BME280;60383;46.626;18.866;2022-12-29T05:08:20;100989.00;;;0.40;88.70
58072;BME280;60383;46.626;18.866;2022-12-29T05:10:46;100988.75;;;0.45;88.12
58072;BME280;60383;46.626;18.866;2022-12-29T05:13:12;100982.97;;;0.35;88.68
58072;BME280;60383;46.626;18.866;2022-12-29T05:15:37;100980.03;;;0.40;88.90
58072;BME280;60383;46.626;18.866;2022-12-29T05:18:02;100980.34;;;0.34;88.55
58072;BME280;60383;46.626;18.866;2022-12-29T05:20:28;100984.16;;;0.29;89.10
58072;BME280;60383;46.626;18.866;2022-12-29T05:22:53;100980.03;;;0.22;89.10
58072;BME280;60383;46.626;18.866;2022-12-29T05:25:19;100994.59;;;0.18;89.52
58072;BME280;60383;46.626;18.866;2022-12-29T05:27:44;100997.09;;;0.40;89.74
58072;BME280;60383;46.626;18.866;2022-12-29T05:30:10;100995.97;;;0.44;88.87
58072;BME280;60383;46.626;18.866;2022-12-29T05:32:36;101002.16;;;0.46;88.17
58072;BME280;60383;46.626;18.866;2022-12-29T05:35:01;100999.25;;;0.51;88.19
58072;BME280;60383;46.626;18.866;2022-12-29T05:37:27;101011.91;;;0.49;88.08
58072;BME280;60383;46.626;18.866;2022-12-29T05:39:52;100999.97;;;0.55;88.39
58072;BME280;60383;46.626;18.866;2022-12-29T05:42:18;100999.69;;;0.42;88.64
58072;BME280;60383;46.626;18.866;2022-12-29T05:44:43;100995.88;;;0.28;88.90
58072;BME280;60383;46.626;18.866;2022-12-29T05:47:09;100999.84;;;0.39;88.52
58072;BME280;60383;46.626;18.866;2022-12-29T05:49:34;100996.91;;;0.43;88.79
58072;BME280;60383;46.626;18.866;2022-12-29T05:51:59;100996.59;;;0.32;88.63
58072;BME280;60383;46.626;18.866;2022-12-29T05:54:25;100988.34;;;0.35;88.68
58072;BME280;60383;46.626;18.866;2022-12-29T05:56:50;100986.84;;;0.29;88.84
58072;BME280;60383;46.626;18.866;2022-12-29T05:59:16;100984.06;;;0.31;88.74
58072;BME280;60383;46.626;18.866;2022-12-29T06:01:41;100977.69;;;0.51;89.70
58072;BME280;60383;46.626;18.866;2022-12-29T06:04:07;100975.44;;;0.42;88.61
58072;BME280;60383;46.626;18.866;2022-12-29T06:06:32;100987.66;;;0.49;88.60
58072;BME280;60383;46.626;18.866;2022-12-29T06:08:57;100974.66;;;0.57;88.85
58072;BME280;60383;46.626;18.866;2022-12-29T06:11:23;100985.28;;;0.43;88.65
58072;BME280;60383;46.626;18.866;2022-12-29T06:13:48;100974.88;;;0.35;88.51
58072;BME280;60383;46.626;18.866;2022-12-29T06:16:14;100976.41;;;0.41;88.46
58072;BME280;60383;46.626;18.866;2022-12-29T06:18:39;100984.72;;;0.54;88.49
58072;BME280;60383;46.626;18.866;2022-12-29T06:21:05;100972.97;;;0.72;88.56
58072;BME280;60383;46.626;18.866;2022-12-29T06:23:31;100969.44;;;0.72;88.87
58072;BME280;60383;46.626;18.866;2022-12-29T06:25:57;100973.06;;;0.53;89.89
58072;BME280;60383;46.626;18.866;2022-12-29T06:28:22;100973.94;;;0.54;91.12
58072;BME280;60383;46.626;18.866;2022-12-29T06:30:48;100977.56;;;0.35;91.16
58072;BME280;60383;46.626;18.866;2022-12-29T06:33:14;100975.44;;;0.59;91.96
58072;BME280;60383;46.626;18.866;2022-12-29T06:35:41;100973.44;;;0.63;92.12
58072;BME280;60383;46.626;18.866;2022-12-29T06:38:07;100971.28;;;0.87;90.29
58072;BME280;60383;46.626;18.866;2022-12-29T06:40:32;100973.88;;;1.06;89.93
58072;BME280;60383;46.626;18.866;2022-12-29T06:42:58;100976.28;;;1.28;89.79
58072;BME280;60383;46.626;18.866;2022-12-29T06:45:23;100976.28;;;1.44;91.48
58072;BME280;60383;46.626;18.866;2022-12-29T06:47:49;100974.84;;;1.55;90.44
58072;BME280;60383;46.626;18.866;2022-12-29T06:50:14;100975.34;;;1.62;88.63
58072;BME280;60383;46.626;18.866;2022-12-29T06:52:40;100975.97;;;1.83;87.76
58072;BME280;60383;46.626;18.866;2022-12-29T06:55:06;100968.81;;;1.98;86.85
58072;BME280;60383;46.626;18.866;2022-12-29T06:57:32;100977.28;;;2.38;85.36
58072;BME280;60383;46.626;18.866;2022-12-29T06:59:57;100965.72;;;2.81;82.61
58072;BME280;60383;46.626;18.866;2022-12-29T07:02:23;100968.88;;;2.73;81.78
58072;BME280;60383;46.626;18.866;2022-12-29T07:04:51;100962.38;;;2.61;80.91
58072;BME280;60383;46.626;18.866;2022-12-29T07:07:18;100971.16;;;2.65;80.40
58072;BME280;60383;46.626;18.866;2022-12-29T07:09:43;100980.09;;;2.81;79.74
58072;BME280;60383;46.626;18.866;2022-12-29T07:12:09;100974.41;;;2.86;79.34
58072;BME280;60383;46.626;18.866;2022-12-29T07:14:34;100980.22;;;2.94;79.54
58072;BME280;60383;46.626;18.866;2022-12-29T07:17:01;100977.91;;;3.31;77.89
58072;BME280;60383;46.626;18.866;2022-12-29T07:19:26;100973.66;;;2.98;78.84
58072;BME280;60383;46.626;18.866;2022-12-29T07:21:54;100972.44;;;2.59;79.92
58072;BME280;60383;46.626;18.866;2022-12-29T07:24:19;100967.13;;;2.11;83.04
58072;BME280;60383;46.626;18.866;2022-12-29T07:26:45;100962.22;;;1.87;83.71
58072;BME280;60383;46.626;18.866;2022-12-29T07:29:10;100965.00;;;2.02;83.05
58072;BME280;60383;46.626;18.866;2022-12-29T07:31:36;100967.53;;;1.57;86.49
58072;BME280;60383;46.626;18.866;2022-12-29T07:34:01;100963.94;;;1.56;87.29
58072;BME280;60383;46.626;18.866;2022-12-29T07:36:27;100962.88;;;1.59;86.93
58072;BME280;60383;46.626;18.866;2022-12-29T07:38:52;100957.97;;;1.18;88.72
58072;BME280;60383;46.626;18.866;2022-12-29T07:41:18;100966.28;;;1.47;87.98
58072;BME280;60383;46.626;18.866;2022-12-29T07:43:47;100973.34;;;1.65;88.03
58072;BME280;60383;46.626;18.866;2022-12-29T07:46:13;100955.28;;;2.89;83.22
58072;BME280;60383;46.626;18.866;2022-12-29T07:48:38;100953.03;;;4.76;75.67
58072;BME280;60383;46.626;18.866;2022-12-29T07:51:04;100967.34;;;5.92;69.44
58072;BME280;60383;46.626;18.866;2022-12-29T07:53:29;100965.94;;;7.86;63.77
58072;BME280;60383;46.626;18.866;2022-12-29T07:55:55;100965.31;;;6.92;63.69
58072;BME280;60383;46.626;18.866;2022-12-29T07:58:21;100968.81;;;7.28;63.76
58072;BME280;60383;46.626;18.866;2022-12-29T08:00:46;100964.09;;;7.07;63.51
58072;BME280;60383;46.626;18.866;2022-12-29T08:03:12;100964.94;;;7.87;61.30
58072;BME280;60383;46.626;18.866;2022-12-29T08:05:37;100965.38;;;8.59;58.37
58072;BME280;60383;46.626;18.866;2022-12-29T08:08:03;100959.91;;;9.53;55.61
58072;BME280;60383;46.626;18.866;2022-12-29T08:10:28;100963.94;;;10.10;53.59
58072;BME280;60383;46.626;18.866;2022-12-29T08:12:54;100956.09;;;10.65;52.30
58072;BME280;60383;46.626;18.866;2022-12-29T08:15:19;100958.09;;;9.64;54.57
58072;BME280;60383;46.626;18.866;2022-12-29T08:17:45;100961.41;;;11.44;50.58
58072;BME280;60383;46.626;18.866;2022-12-29T08:20:10;100948.06;;;12.14;47.56
58072;BME280;60383;46.626;18.866;2022-12-29T08:22:35;100955.69;;;12.39;46.59
58072;BME280;60383;46.626;18.866;2022-12-29T08:25:01;100953.84;;;12.84;46.02
58072;BME280;60383;46.626;18.866;2022-12-29T08:27:27;100962.44;;;13.07;45.26
58072;BME280;60383;46.626;18.866;2022-12-29T08:29:52;100951.97;;;13.55;43.91
58072;BME280;60383;46.626;18.866;2022-12-29T08:32:18;100951.66;;;11.31;48.43
58072;BME280;60383;46.626;18.866;2022-12-29T08:34:43;100951.31;;;11.72;48.57
58072;BME280;60383;46.626;18.866;2022-12-29T08:37:08;100955.19;;;10.94;50.01
58072;BME280;60383;46.626;18.866;2022-12-29T08:39:34;100962.00;;;9.71;53.47
58072;BME280;60383;46.626;18.866;2022-12-29T08:41:59;100971.91;;;8.24;58.00
58072;BME280;60383;46.626;18.866;2022-12-29T08:44:25;100963.00;;;7.66;60.49
58072;BME280;60383;46.626;18.866;2022-12-29T08:46:50;100967.69;;;7.08;62.11
58072;BME280;60383;46.626;18.866;2022-12-29T08:49:16;100966.28;;;6.79;63.94
58072;BME280;60383;46.626;18.866;2022-12-29T08:51:41;100969.34;;;6.39;65.54
58072;BME280;60383;46.626;18.866;2022-12-29T08:54:07;100971.97;;;6.16;67.08
58072;BME280;60383;46.626;18.866;2022-12-29T08:56:32;100968.78;;;5.85;68.95
58072;BME280;60383;46.626;18.866;2022-12-29T08:58:57;100969.53;;;5.87;69.31
58072;BME280;60383;46.626;18.866;2022-12-29T09:01:23;100971.31;;;5.75;69.99
58072;BME280;60383;46.626;18.866;2022-12-29T09:03:49;100979.00;;;5.32;71.46
58072;BME280;60383;46.626;18.866;2022-12-29T09:06:15;100961.94;;;5.42;71.84
58072;BME280;60383;46.626;18.866;2022-12-29T09:08:42;100965.75;;;5.01;73.11
58072;BME280;60383;46.626;18.866;2022-12-29T09:11:10;100954.38;;;4.96;74.23
58072;BME280;60383;46.626;18.866;2022-12-29T09:13:35;100955.31;;;5.21;73.19
58072;BME280;60383;46.626;18.866;2022-12-29T09:16:01;100970.31;;;4.88;74.92
58072;BME280;60383;46.626;18.866;2022-12-29T09:18:27;100957.38;;;4.66;75.89
58072;BME280;60383;46.626;18.866;2022-12-29T09:20:57;100965.44;;;4.40;76.68
58072;BME280;60383;46.626;18.866;2022-12-29T09:23:23;100965.84;;;4.61;76.62
58072;BME280;60383;46.626;18.866;2022-12-29T09:25:48;100963.72;;;4.39;76.97
58072;BME280;60383;46.626;18.866;2022-12-29T09:28:14;100957.59;;;4.22;78.55
58072;BME280;60383;46.626;18.866;2022-12-29T09:30:39;100960.69;;;4.43;78.70
58072;BME280;60383;46.626;18.866;2022-12-29T09:33:04;100947.88;;;4.45;78.47
58072;BME280;60383;46.626;18.866;2022-12-29T09:35:30;100945.63;;;4.65;77.49
58072;BME280;60383;46.626;18.866;2022-12-29T09:37:55;100940.00;;;4.68;77.57
58072;BME280;60383;46.626;18.866;2022-12-29T09:40:30;100941.53;;;4.72;77.55
58072;BME280;60383;46.626;18.866;2022-12-29T09:43:11;100952.84;;;4.79;77.83
58072;BME280;60383;46.626;18.866;2022-12-29T09:45:44;100944.31;;;4.58;78.60
58072;BME280;60383;46.626;18.866;2022-12-29T09:48:19;100942.03;;;4.52;79.29
58072;BME280;60383;46.626;18.866;2022-12-29T09:50:59;100933.31;;;4.34;80.29
58072;BME280;60383;46.626;18.866;2022-12-29T09:53:34;100942.59;;;4.57;80.11
58072;BME280;60383;46.626;18.866;2022-12-29T09:56:05;100924.16;;;4.62;80.44
58072;BME280;60383;46.626;18.866;2022-12-29T09:58:37;100923.59;;;4.57;79.95
58072;BME280;60383;46.626;18.866;2022-12-29T10:03:46;100911.03;;;4.94;80.11
58072;BME280;60383;46.626;18.866;2022-12-29T10:06:23;100919.16;;;5.07;78.82
58072;BME280;60383;46.626;18.866;2022-12-29T10:15:09;100920.81;;;4.97;79.63
58072;BME280;60383;46.626;18.866;2022-12-29T10:25:44;100913.97;;;4.66;80.82
58072;BME280;60383;46.626;18.866;2022-12-29T10:28:22;100919.59;;;4.88;80.17
58072;BME280;60383;46.626;18.866;2022-12-29T10:30:49;100905.28;;;4.86;80.21
58072;BME280;60383;46.626;18.866;2022-12-29T10:33:19;100905.28;;;4.86;80.26
58072;BME280;60383;46.626;18.866;2022-12-29T10:35:50;100900.16;;;4.94;79.92
58072;BME280;60383;46.626;18.866;2022-12-29T10:38:39;100900.41;;;5.04;79.53
58072;BME280;60383;46.626;18.866;2022-12-29T10:41:25;100895.72;;;5.06;79.70
58072;BME280;60383;46.626;18.866;2022-12-29T10:43:54;100896.03;;;5.15;79.67
58072;BME280;60383;46.626;18.866;2022-12-29T10:46:25;100885.94;;;5.17;79.51
58072;BME280;60383;46.626;18.866;2022-12-29T10:48:52;100881.41;;;5.04;79.86
58072;BME280;60383;46.626;18.866;2022-12-29T10:51:24;100881.72;;;4.61;81.90
58072;BME280;60383;46.626;18.866;2022-12-29T10:54:23;100905.72;;;5.06;80.78
58072;BME280;60383;46.626;18.866;2022-12-29T10:57:00;100878.75;;;5.16;80.70
58072;BME280;60383;46.626;18.866;2022-12-29T10:59:29;100881.59;;;5.14;80.64
58072;BME280;60383;46.626;18.866;2022-12-29T11:02:15;100862.47;;;5.03;82.34
58072;BME280;60383;46.626;18.866;2022-12-29T11:04:57;100860.59;;;5.16;82.46
58072;BME280;60383;46.626;18.866;2022-12-29T11:07:25;100855.63;;;5.23;81.87
58072;BME280;60383;46.626;18.866;2022-12-29T11:09:51;100857.28;;;5.00;82.13
58072;BME280;60383;46.626;18.866;2022-12-29T11:12:24;100860.31;;;4.95;82.43
58072;BME280;60383;46.626;18.866;2022-12-29T11:15:05;100859.00;;;5.14;82.57
58072;BME280;60383;46.626;18.866;2022-12-29T11:17:45;100849.88;;;5.02;81.73
58072;BME280;60383;46.626;18.866;2022-12-29T11:20:38;100845.84;;;5.07;81.86
58072;BME280;60383;46.626;18.866;2022-12-29T11:23:20;100845.66;;;4.98;82.08
58072;BME280;60383;46.626;18.866;2022-12-29T11:25:46;100848.38;;;5.10;81.69
58072;BME280;60383;46.626;18.866;2022-12-29T11:28:16;100849.41;;;5.21;82.46
58072;BME280;60383;46.626;18.866;2022-12-29T11:30:42;100841.69;;;5.27;81.20
58072;BME280;60383;46.626;18.866;2022-12-29T11:33:09;100845.28;;;5.28;81.98
58072;BME280;60383;46.626;18.866;2022-12-29T11:38:03;100833.00;;;5.22;81.54
58072;BME280;60383;46.626;18.866;2022-12-29T11:40:30;100825.41;;;5.27;82.34
58072;BME280;60383;46.626;18.866;2022-12-29T11:42:59;100829.63;;;5.56;81.56
58072;BME280;60383;46.626;18.866;2022-12-29T11:45:30;100828.06;;;5.65;81.80
58072;BME280;60383;46.626;18.866;2022-12-29T11:48:29;100821.47;;;5.80;80.87
58072;BME280;60383;46.626;18.866;2022-12-29T11:50:57;100816.50;;;5.74;81.02
58072;BME280;60383;46.626;18.866;2022-12-29T11:53:30;100823.69;;;5.99;80.30
58072;BME280;60383;46.626;18.866;2022-12-29T11:55:59;100818.56;;;5.95;80.15
58072;BME280;60383;46.626;18.866;2022-12-29T11:58:33;100818.13;;;5.76;80.87
58072;BME280;60383;46.626;18.866;2022-12-29T12:01:21;100812.97;;;5.85;80.26
58072;BME280;60383;46.626;18.866;2022-12-29T12:03:59;100816.25;;;6.01;80.84
58072;BME280;60383;46.626;18.866;2022-12-29T12:06:27;100808.63;;;6.06;80.49
58072;BME280;60383;46.626;18.866;2022-12-29T12:08:56;100805.31;;;5.90;80.46
58072;BME280;60383;46.626;18.866;2022-12-29T12:11:28;100802.78;;;6.00;80.26
58072;BME280;60383;46.626;18.866;2022-12-29T12:14:21;100804.63;;;6.35;79.44
58072;BME280;60383;46.626;18.866;2022-12-29T12:16:59;100790.16;;;6.57;78.81
58072;BME280;60383;46.626;18.866;2022-12-29T12:19:40;100789.94;;;6.60;78.40
58072;BME280;60383;46.626;18.866;2022-12-29T12:22:12;100792.75;;;6.47;78.94
58072;BME280;60383;46.626;18.866;2022-12-29T12:24:47;100794.41;;;6.61;79.07
58072;BME280;60383;46.626;18.866;2022-12-29T12:27:29;100779.50;;;6.43;79.25
58072;BME280;60383;46.626;18.866;2022-12-29T12:30:11;100771.75;;;6.61;79.30
58072;BME280;60383;46.626;18.866;2022-12-29T12:44:36;100781.50;;;6.41;81.16
58072;BME280;60383;46.626;18.866;2022-12-29T12:55:22;100770.75;;;6.50;81.83
58072;BME280;60383;46.626;18.866;2022-12-29T12:58:08;100767.78;;;6.76;81.69
58072;BME280;60383;46.626;18.866;2022-12-29T13:09:22;100763.81;;;6.80;82.18
58072;BME280;60383;46.626;18.866;2022-12-29T13:17:56;100775.69;;;6.91;83.11
58072;BME280;60383;46.626;18.866;2022-12-29T13:28:09;100766.06;;;7.42;80.58
58072;BME280;60383;46.626;18.866;2022-12-29T13:36:36;100769.13;;;7.81;79.22
58072;BME280;60383;46.626;18.866;2022-12-29T13:39:13;100761.91;;;7.59;80.02
58072;BME280;60383;46.626;18.866;2022-12-29T13:41:45;100761.75;;;7.72;79.78
58072;BME280;60383;46.626;18.866;2022-12-29T13:44:18;100748.38;;;7.90;79.38
58072;BME280;60383;46.626;18.866;2022-12-29T13:46:46;100756.13;;;8.06;78.98
58072;BME280;60383;46.626;18.866;2022-12-29T13:49:17;100755.94;;;8.28;78.06
58072;BME280;60383;46.626;18.866;2022-12-29T13:51:48;100744.44;;;8.46;77.03
58072;BME280;60383;46.626;18.866;2022-12-29T13:54:45;100756.72;;;8.61;76.50
58072;BME280;60383;46.626;18.866;2022-12-29T13:57:39;100755.81;;;8.51;76.96
58072;BME280;60383;46.626;18.866;2022-12-29T14:00:17;100755.13;;;8.59;77.30
58072;BME280;60383;46.626;18.866;2022-12-29T14:07:43;100751.66;;;8.47;78.33
58072;BME280;60383;46.626;18.866;2022-12-29T14:13:22;100761.00;;;8.33;79.30
58072;BME280;60383;46.626;18.866;2022-12-29T14:15:54;100767.63;;;8.09;79.64
58072;BME280;60383;46.626;18.866;2022-12-29T14:18:28;100763.03;;;8.10;79.14
58072;BME280;60383;46.626;18.866;2022-12-29T14:20:58;100763.03;;;7.89;79.75
58072;BME280;60383;46.626;18.866;2022-12-29T14:28:36;100757.28;;;7.71;81.76
58072;BME280;60383;46.626;18.866;2022-12-29T14:33:41;100756.09;;;7.84;81.58
58072;BME280;60383;46.626;18.866;2022-12-29T14:36:42;100764.28;;;7.84;81.66
58072;BME280;60383;46.626;18.866;2022-12-29T14:39:40;100765.47;;;7.92;81.88
58072;BME280;60383;46.626;18.866;2022-12-29T14:44:46;100768.00;;;7.83;82.50
58072;BME280;60383;46.626;18.866;2022-12-29T14:47:19;100768.66;;;7.76;82.63
58072;BME280;60383;46.626;18.866;2022-12-29T14:49:45;100761.25;;;7.66;82.89
58072;BME280;60383;46.626;18.866;2022-12-29T14:52:23;100774.69;;;7.58;82.82
58072;BME280;60383;46.626;18.866;2022-12-29T14:57:52;100763.59;;;7.39;84.72
58072;BME280;60383;46.626;18.866;2022-12-29T15:00:26;100762.34;;;7.31;85.18
58072;BME280;60383;46.626;18.866;2022-12-29T15:03:06;100764.09;;;7.32;85.63
58072;BME280;60383;46.626;18.866;2022-12-29T15:05:44;100760.75;;;7.29;86.15
58072;BME280;60383;46.626;18.866;2022-12-29T15:08:11;100766.34;;;7.27;85.63
58072;BME280;60383;46.626;18.866;2022-12-29T15:10:55;100759.81;;;7.18;86.28
58072;BME280;60383;46.626;18.866;2022-12-29T15:13:36;100764.66;;;7.15;86.08